createdAt,value
2016-11-15T00:00:53.375Z,0
2016-11-15T00:02:02.219Z,0
2016-11-15T00:03:11.539Z,0
2016-11-15T00:04:20.529Z,0
2016-11-15T00:05:29.467Z,0
2016-11-15T00:06:39.040Z,0
2016-11-15T00:07:48.125Z,0
2016-11-15T00:08:57.770Z,0
2016-11-15T00:10:06.944Z,0
2016-11-15T00:11:16.274Z,0
2016-11-15T00:12:25.280Z,0
2016-11-15T00:13:34.366Z,0
2016-11-15T00:14:44.272Z,0
2016-11-15T00:15:53.364Z,0
2016-11-15T00:17:02.686Z,0
2016-11-15T00:18:11.442Z,0
2016-11-15T00:19:20.472Z,0
2016-11-15T00:20:29.165Z,0
2016-11-15T00:21:37.863Z,0
2016-11-15T00:22:47.086Z,0
2016-11-15T00:26:28.484Z,0
2016-11-15T00:27:37.337Z,0
2016-11-15T00:28:46.093Z,0
2016-11-15T00:29:55.432Z,0
2016-11-15T00:31:04.490Z,0
2016-11-15T00:32:13.829Z,0
2016-11-15T00:33:23.201Z,0
2016-11-15T00:34:32.221Z,0
2016-11-15T00:35:41.524Z,0
2016-11-15T00:36:50.834Z,0
2016-11-15T00:37:59.543Z,0
2016-11-15T00:39:08.718Z,0
2016-11-15T00:40:17.753Z,0
2016-11-15T00:41:26.764Z,0
2016-11-15T00:42:35.779Z,0
2016-11-15T00:43:44.471Z,0
2016-11-15T00:44:53.488Z,0
2016-11-15T00:46:03.117Z,0
2016-11-15T00:47:12.113Z,0
2016-11-15T00:48:21.121Z,0
2016-11-15T00:49:29.843Z,0
2016-11-15T00:50:39.355Z,0
2016-11-15T00:51:48.716Z,0
2016-11-15T00:52:57.759Z,0
2016-11-15T00:54:06.473Z,0
2016-11-15T00:55:15.479Z,0
2016-11-15T00:56:24.801Z,0
2016-11-15T00:57:33.836Z,0
2016-11-15T00:58:42.854Z,0
2016-11-15T00:59:51.534Z,0
2016-11-15T01:01:00.252Z,0
2016-11-15T01:02:10.213Z,0
2016-11-15T01:03:19.284Z,0
2016-11-15T01:04:28.905Z,0
2016-11-15T01:05:38.207Z,0
2016-11-15T01:06:47.531Z,0
2016-11-15T01:07:56.862Z,0
2016-11-15T01:09:05.924Z,0
2016-11-15T01:10:14.650Z,0
2016-11-15T01:11:23.975Z,0
2016-11-15T01:12:33.014Z,0
2016-11-15T01:13:41.863Z,0
2016-11-15T01:14:50.593Z,0
2016-11-15T01:16:00.211Z,0
2016-11-15T01:17:09.308Z,0
2016-11-15T01:18:18.351Z,0
2016-11-15T01:19:27.371Z,0
2016-11-15T01:20:36.387Z,0
2016-11-15T01:21:45.401Z,0
2016-11-15T01:22:54.415Z,0
2016-11-15T01:24:03.721Z,0
2016-11-15T01:25:12.754Z,0
2016-11-15T01:26:21.471Z,0
2016-11-15T01:27:31.110Z,0
2016-11-15T01:28:40.128Z,0
2016-11-15T01:29:49.447Z,0
2016-11-15T01:30:58.918Z,0
2016-11-15T01:32:07.949Z,0
2016-11-15T01:33:16.667Z,0
2016-11-15T01:34:25.999Z,0
2016-11-15T01:35:35.008Z,0
2016-11-15T01:36:44.025Z,0
2016-11-15T01:37:53.370Z,0
2016-11-15T01:39:02.089Z,0
2016-11-15T01:40:11.419Z,0
2016-11-15T01:41:20.408Z,0
2016-11-15T01:42:29.729Z,0
2016-11-15T01:43:39.076Z,0
2016-11-15T01:44:48.400Z,0
2016-11-15T01:45:57.763Z,0
2016-11-15T01:47:07.098Z,0
2016-11-15T01:48:16.108Z,0
2016-11-15T01:49:25.114Z,0
2016-11-15T01:50:34.201Z,0
2016-11-15T01:51:42.919Z,0
2016-11-15T01:52:52.236Z,0
2016-11-15T01:54:01.241Z,0
2016-11-15T01:55:10.851Z,0
2016-11-15T01:56:19.888Z,0
2016-11-15T01:57:28.570Z,0
2016-11-15T01:58:37.558Z,0
2016-11-15T01:59:46.554Z,0
2016-11-15T02:00:55.256Z,0
2016-11-15T02:02:04.249Z,0
2016-11-15T02:03:12.978Z,0
2016-11-15T02:04:21.998Z,0
2016-11-15T02:05:30.698Z,0
2016-11-15T02:06:40.023Z,0
2016-11-15T02:07:49.045Z,0
2016-11-15T02:08:58.374Z,0
2016-11-15T02:10:07.392Z,0
2016-11-15T02:11:16.735Z,0
2016-11-15T02:12:25.742Z,0
2016-11-15T02:13:34.729Z,0
2016-11-15T02:14:43.773Z,0
2016-11-15T02:15:53.083Z,0
2016-11-15T02:17:02.133Z,0
2016-11-15T02:18:10.847Z,0
2016-11-15T02:19:20.176Z,0
2016-11-15T02:20:29.175Z,0
2016-11-15T02:21:38.173Z,0
2016-11-15T02:22:46.874Z,0
2016-11-15T02:23:56.175Z,0
2016-11-15T02:25:04.914Z,0
2016-11-15T02:26:13.958Z,0
2016-11-15T02:27:23.019Z,0
2016-11-15T02:28:32.351Z,0
2016-11-15T02:29:41.391Z,0
2016-11-15T02:30:50.414Z,0
2016-11-15T02:31:59.444Z,0
2016-11-15T02:33:08.224Z,0
2016-11-15T02:34:17.258Z,0
2016-11-15T02:35:26.299Z,0
2016-11-15T02:36:35.084Z,0
2016-11-15T02:37:44.720Z,0
2016-11-15T02:38:53.435Z,0
2016-11-15T02:40:03.355Z,0
2016-11-15T02:41:12.386Z,0
2016-11-15T02:42:21.422Z,0
2016-11-15T02:43:30.125Z,0
2016-11-15T02:44:39.124Z,0
2016-11-15T02:45:48.533Z,0
2016-11-15T02:46:57.623Z,0
2016-11-15T02:48:06.628Z,0
2016-11-15T02:49:15.635Z,0
2016-11-15T02:50:24.349Z,0
2016-11-15T02:51:33.559Z,0
2016-11-15T02:52:42.599Z,0
2016-11-15T02:53:51.638Z,0
2016-11-15T02:55:00.700Z,0
2016-11-15T02:56:10.019Z,0
2016-11-15T02:57:18.885Z,0
2016-11-15T02:58:27.911Z,0
2016-11-15T02:59:36.600Z,0
2016-11-15T03:00:45.611Z,0
2016-11-15T03:01:54.972Z,0
2016-11-15T03:03:04.674Z,0
2016-11-15T03:04:13.989Z,0
2016-11-15T03:05:22.706Z,0
2016-11-15T03:06:31.751Z,0
2016-11-15T03:07:40.799Z,0
2016-11-15T03:08:51.038Z,0
2016-11-15T03:10:00.086Z,0
2016-11-15T03:11:08.798Z,0
2016-11-15T03:12:18.107Z,0
2016-11-15T03:13:27.229Z,0
2016-11-15T03:14:36.578Z,0
2016-11-15T03:15:45.907Z,0
2016-11-15T03:16:54.601Z,0
2016-11-15T03:18:03.602Z,0
2016-11-15T03:19:12.629Z,0
2016-11-15T03:20:22.142Z,0
2016-11-15T03:21:30.821Z,0
2016-11-15T03:22:39.533Z,0
2016-11-15T03:23:48.258Z,0
2016-11-15T03:24:57.010Z,0
2016-11-15T03:26:06.640Z,0
2016-11-15T03:27:15.639Z,0
2016-11-15T03:28:24.651Z,0
2016-11-15T03:29:33.647Z,0
2016-11-15T03:30:42.329Z,0
2016-11-15T03:31:51.320Z,0
2016-11-15T03:33:00.310Z,0
2016-11-15T03:34:09.619Z,0
2016-11-15T03:35:18.645Z,0
2016-11-15T03:36:27.339Z,0
2016-11-15T03:37:36.537Z,0
2016-11-15T03:38:45.274Z,0
2016-11-15T03:39:54.578Z,0
2016-11-15T03:41:03.568Z,0
2016-11-15T03:42:12.592Z,0
2016-11-15T03:43:21.304Z,0
2016-11-15T03:44:30.359Z,0
2016-11-15T03:45:39.052Z,0
2016-11-15T03:46:49.272Z,0
2016-11-15T03:47:57.991Z,0
2016-11-15T03:49:07.208Z,0
2016-11-15T03:50:16.292Z,0
2016-11-15T03:51:25.309Z,0
2016-11-15T03:52:34.618Z,0
2016-11-15T03:53:43.631Z,0
2016-11-15T03:54:53.552Z,0
2016-11-15T03:56:02.974Z,0
2016-11-15T03:57:12.290Z,0
2016-11-15T03:58:21.921Z,0
2016-11-15T03:59:30.930Z,0
2016-11-15T04:00:39.938Z,0
2016-11-15T04:01:48.942Z,0
2016-11-15T04:02:58.571Z,0
2016-11-15T04:04:07.638Z,0
2016-11-15T04:05:17.245Z,0
2016-11-15T04:06:26.268Z,0
2016-11-15T04:07:35.034Z,0
2016-11-15T04:08:44.329Z,0
2016-11-15T04:09:53.073Z,0
2016-11-15T04:11:01.766Z,0
2016-11-15T04:12:10.781Z,0
2016-11-15T04:13:19.797Z,0
2016-11-15T04:14:28.804Z,0
2016-11-15T04:15:38.113Z,0
2016-11-15T04:16:46.858Z,0
2016-11-15T04:17:55.566Z,0
2016-11-15T04:19:04.569Z,0
2016-11-15T04:20:13.895Z,0
2016-11-15T04:21:22.652Z,0
2016-11-15T04:22:31.393Z,0
2016-11-15T04:23:41.044Z,0
2016-11-15T04:24:50.073Z,0
2016-11-15T04:25:58.791Z,0
2016-11-15T04:27:07.796Z,0
2016-11-15T04:28:17.118Z,0
2016-11-15T04:29:26.158Z,0
2016-11-15T04:30:35.464Z,0
2016-11-15T04:31:44.206Z,0
2016-11-15T04:32:53.210Z,0
2016-11-15T04:34:02.243Z,0
2016-11-15T04:35:10.939Z,0
2016-11-15T04:36:19.939Z,0
2016-11-15T04:37:29.562Z,0
2016-11-15T04:38:38.570Z,0
2016-11-15T04:39:47.265Z,0
2016-11-15T04:40:56.313Z,0
2016-11-15T04:42:05.070Z,0
2016-11-15T04:43:14.084Z,0
2016-11-15T04:44:23.112Z,0
2016-11-15T04:45:32.119Z,0
2016-11-15T04:46:42.109Z,0
2016-11-15T04:47:51.427Z,0
2016-11-15T04:49:00.731Z,0
2016-11-15T04:50:10.056Z,0
2016-11-15T04:51:19.060Z,0
2016-11-15T04:52:27.899Z,0
2016-11-15T04:53:36.924Z,0
2016-11-15T04:54:45.943Z,0
2016-11-15T04:55:55.878Z,0
2016-11-15T04:57:04.925Z,0
2016-11-15T04:58:14.124Z,0
2016-11-15T04:59:22.861Z,0
2016-11-15T05:00:31.900Z,0
2016-11-15T05:01:40.899Z,0
2016-11-15T05:02:49.954Z,0
2016-11-15T05:03:59.428Z,0
2016-11-15T05:05:08.456Z,0
2016-11-15T05:06:17.510Z,0
2016-11-15T05:07:26.824Z,0
2016-11-15T05:08:35.841Z,0
2016-11-15T05:09:44.840Z,0
2016-11-15T05:10:54.182Z,0
2016-11-15T05:12:03.329Z,0
2016-11-15T05:13:12.060Z,0
2016-11-15T05:14:21.976Z,0
2016-11-15T05:15:31.137Z,0
2016-11-15T05:16:39.893Z,0
2016-11-15T05:17:49.252Z,0
2016-11-15T05:18:57.956Z,0
2016-11-15T05:20:06.662Z,0
2016-11-15T05:21:16.326Z,0
2016-11-15T05:22:25.381Z,0
2016-11-15T05:23:34.400Z,0
2016-11-15T05:24:43.706Z,0
2016-11-15T05:25:52.699Z,0
2016-11-15T05:27:02.324Z,0
2016-11-15T05:28:11.348Z,0
2016-11-15T05:29:20.065Z,0
2016-11-15T05:30:29.078Z,0
2016-11-15T05:31:38.432Z,0
2016-11-15T05:32:47.426Z,0
2016-11-15T05:33:56.779Z,0
2016-11-15T05:35:05.488Z,0
2016-11-15T05:36:14.500Z,0
2016-11-15T05:37:23.525Z,0
2016-11-15T05:38:33.195Z,0
2016-11-15T05:39:42.219Z,0
2016-11-15T05:40:51.287Z,0
2016-11-15T05:42:00.654Z,0
2016-11-15T05:43:09.358Z,0
2016-11-15T05:44:18.206Z,0
2016-11-15T05:45:27.223Z,0
2016-11-15T05:46:36.263Z,0
2016-11-15T05:47:45.568Z,0
2016-11-15T05:48:54.553Z,0
2016-11-15T05:50:04.467Z,0
2016-11-15T05:51:13.179Z,0
2016-11-15T05:52:22.194Z,0
2016-11-15T05:53:31.325Z,0
2016-11-15T05:54:40.040Z,0
2016-11-15T05:55:48.900Z,0
2016-11-15T05:56:58.532Z,0
2016-11-15T05:58:07.825Z,0
2016-11-15T05:59:17.160Z,0
2016-11-15T06:00:26.213Z,0
2016-11-15T06:01:35.856Z,0
2016-11-15T06:02:45.173Z,0
2016-11-15T06:03:54.478Z,0
2016-11-15T06:05:03.477Z,0
2016-11-15T06:06:13.094Z,0
2016-11-15T06:07:22.590Z,0
2016-11-15T06:08:31.305Z,0
2016-11-15T06:09:40.621Z,0
2016-11-15T06:10:49.965Z,0
2016-11-15T06:11:59.291Z,0
2016-11-15T06:13:08.303Z,0
2016-11-15T06:14:17.322Z,0
2016-11-15T06:15:26.337Z,0
2016-11-15T06:16:35.333Z,0
2016-11-15T06:17:44.674Z,0
2016-11-15T06:18:53.386Z,0
2016-11-15T06:20:02.098Z,0
2016-11-15T06:21:11.093Z,0
2016-11-15T06:22:20.760Z,8
2016-11-15T06:23:29.801Z,8
2016-11-15T06:24:38.951Z,8
2016-11-15T06:25:47.663Z,4
2016-11-15T06:26:56.657Z,8
2016-11-15T06:28:05.374Z,8
2016-11-15T06:29:14.670Z,8
2016-11-15T06:30:23.507Z,4
2016-11-15T06:31:32.235Z,4
2016-11-15T06:32:42.151Z,8
2016-11-15T06:33:51.159Z,8
2016-11-15T06:35:00.193Z,8
2016-11-15T06:36:09.802Z,8
2016-11-15T06:37:19.157Z,8
2016-11-15T06:38:28.384Z,8
2016-11-15T06:39:37.393Z,8
2016-11-15T06:40:46.446Z,8
2016-11-15T06:41:55.906Z,12
2016-11-15T06:43:05.510Z,8
2016-11-15T06:44:14.836Z,8
2016-11-15T06:45:23.852Z,12
2016-11-15T06:46:33.156Z,12
2016-11-15T06:47:42.497Z,12
2016-11-15T06:48:51.477Z,16
2016-11-15T06:50:00.171Z,16
2016-11-15T06:51:09.817Z,16
2016-11-15T06:52:18.534Z,8
2016-11-15T06:53:27.638Z,8
2016-11-15T06:54:36.321Z,12
2016-11-15T06:55:45.321Z,12
2016-11-15T06:56:54.040Z,8
2016-11-15T06:58:03.338Z,12
2016-11-15T06:59:12.375Z,12
2016-11-15T07:00:21.398Z,16
2016-11-15T07:01:30.120Z,20
2016-11-15T07:02:39.444Z,16
2016-11-15T07:03:48.922Z,20
2016-11-15T07:04:57.622Z,20
2016-11-15T07:06:06.659Z,16
2016-11-15T07:07:15.390Z,16
2016-11-15T07:08:24.674Z,20
2016-11-15T07:09:33.505Z,20
2016-11-15T07:10:42.546Z,24
2016-11-15T07:11:51.261Z,28
2016-11-15T07:13:00.879Z,24
2016-11-15T07:14:09.600Z,24
2016-11-15T07:15:18.630Z,24
2016-11-15T07:16:27.633Z,28
2016-11-15T07:17:36.624Z,28
2016-11-15T07:18:45.326Z,28
2016-11-15T07:19:54.307Z,28
2016-11-15T07:21:03.602Z,24
2016-11-15T07:22:12.954Z,32
2016-11-15T07:23:21.943Z,36
2016-11-15T07:24:30.942Z,40
2016-11-15T07:25:39.631Z,48
2016-11-15T07:26:48.673Z,52
2016-11-15T07:27:57.668Z,52
2016-11-15T07:29:06.370Z,52
2016-11-15T07:30:15.667Z,56
2016-11-15T07:31:24.970Z,56
2016-11-15T07:32:34.588Z,52
2016-11-15T07:33:43.290Z,56
2016-11-15T07:34:52.924Z,56
2016-11-15T07:36:01.946Z,52
2016-11-15T07:37:10.958Z,64
2016-11-15T07:38:19.944Z,68
2016-11-15T07:39:28.943Z,68
2016-11-15T07:40:37.936Z,72
2016-11-15T07:41:47.260Z,72
2016-11-15T07:42:56.256Z,76
2016-11-15T07:44:05.904Z,80
2016-11-15T07:45:14.922Z,84
2016-11-15T07:46:24.534Z,88
2016-11-15T07:47:33.540Z,104
2016-11-15T07:48:42.600Z,100
2016-11-15T07:49:51.632Z,108
2016-11-15T07:51:00.468Z,128
2016-11-15T07:52:09.178Z,128
2016-11-15T07:53:17.869Z,124
2016-11-15T07:54:26.559Z,128
2016-11-15T07:55:35.547Z,132
2016-11-15T07:56:45.221Z,136
2016-11-15T07:57:54.516Z,140
2016-11-15T07:59:03.509Z,140
2016-11-15T08:00:12.186Z,128
2016-11-15T08:01:20.889Z,136
2016-11-15T08:02:29.574Z,124
2016-11-15T08:03:39.181Z,116
2016-11-15T08:04:48.796Z,124
2016-11-15T08:05:57.794Z,100
2016-11-15T08:07:06.793Z,100
2016-11-15T08:08:15.472Z,104
2016-11-15T08:09:24.162Z,100
2016-11-15T08:10:33.154Z,92
2016-11-15T08:11:42.483Z,100
2016-11-15T08:12:51.638Z,100
2016-11-15T08:14:00.351Z,88
2016-11-15T08:15:09.053Z,92
2016-11-15T08:16:17.794Z,88
2016-11-15T08:17:26.784Z,108
2016-11-15T08:18:36.083Z,120
2016-11-15T08:19:45.078Z,112
2016-11-15T08:20:53.787Z,128
2016-11-15T08:22:03.123Z,132
2016-11-15T08:23:12.117Z,136
2016-11-15T08:24:21.458Z,140
2016-11-15T08:25:30.159Z,140
2016-11-15T08:26:39.469Z,140
2016-11-15T08:27:48.166Z,144
2016-11-15T08:28:56.851Z,152
2016-11-15T08:30:05.846Z,156
2016-11-15T08:31:14.859Z,156
2016-11-15T08:32:24.454Z,172
2016-11-15T08:33:34.113Z,160
2016-11-15T08:34:43.415Z,156
2016-11-15T08:35:52.494Z,148
2016-11-15T08:37:01.491Z,152
2016-11-15T08:38:10.795Z,140
2016-11-15T08:39:19.793Z,136
2016-11-15T08:40:28.780Z,136
2016-11-15T08:41:37.798Z,140
2016-11-15T08:42:47.134Z,148
2016-11-15T08:43:56.171Z,156
2016-11-15T08:45:05.778Z,176
2016-11-15T08:46:14.969Z,188
2016-11-15T08:47:24.329Z,176
2016-11-15T08:48:33.358Z,192
2016-11-15T08:49:42.694Z,188
2016-11-15T08:50:51.387Z,192
2016-11-15T08:52:00.408Z,196
2016-11-15T08:53:09.725Z,176
2016-11-15T08:54:18.501Z,144
2016-11-15T08:55:27.526Z,120
2016-11-15T08:56:36.355Z,144
2016-11-15T08:57:45.111Z,120
2016-11-15T08:58:54.090Z,120
2016-11-15T09:00:03.395Z,120
2016-11-15T09:01:12.459Z,108
2016-11-15T09:02:21.148Z,108
2016-11-15T09:03:30.759Z,112
2016-11-15T09:04:39.756Z,116
2016-11-15T09:05:48.825Z,108
2016-11-15T09:06:57.848Z,112
2016-11-15T09:08:06.581Z,112
2016-11-15T09:09:16.183Z,108
2016-11-15T09:10:25.200Z,112
2016-11-15T09:11:34.506Z,132
2016-11-15T09:12:43.837Z,140
2016-11-15T09:13:52.526Z,140
2016-11-15T09:15:01.821Z,156
2016-11-15T09:16:11.006Z,152
2016-11-15T09:17:19.994Z,136
2016-11-15T09:18:28.683Z,132
2016-11-15T09:19:37.999Z,128
2016-11-15T09:20:47.013Z,136
2016-11-15T09:21:56.620Z,140
2016-11-15T09:23:05.623Z,160
2016-11-15T09:24:14.937Z,160
2016-11-15T09:25:24.234Z,144
2016-11-15T09:26:33.229Z,140
2016-11-15T09:27:42.849Z,116
2016-11-15T09:28:51.534Z,112
2016-11-15T09:30:00.599Z,124
2016-11-15T09:31:09.905Z,144
2016-11-15T09:32:19.558Z,168
2016-11-15T09:33:28.903Z,196
2016-11-15T09:34:39.062Z,220
2016-11-15T09:35:47.792Z,196
2016-11-15T09:36:56.798Z,196
2016-11-15T09:38:05.811Z,192
2016-11-15T09:39:14.668Z,172
2016-11-15T09:40:24.270Z,172
2016-11-15T09:41:33.455Z,156
2016-11-15T09:42:42.174Z,160
2016-11-15T09:43:51.467Z,168
2016-11-15T09:45:01.445Z,168
2016-11-15T09:46:10.154Z,176
2016-11-15T09:47:19.158Z,160
2016-11-15T09:48:27.902Z,144
2016-11-15T09:49:37.593Z,148
2016-11-15T09:50:47.194Z,148
2016-11-15T09:51:56.207Z,144
2016-11-15T09:53:05.202Z,152
2016-11-15T09:54:14.527Z,140
2016-11-15T09:55:23.533Z,136
2016-11-15T09:56:33.016Z,132
2016-11-15T09:57:42.034Z,132
2016-11-15T09:58:51.367Z,156
2016-11-15T10:00:00.081Z,172
2016-11-15T10:01:09.389Z,204
2016-11-15T10:02:18.718Z,248
2016-11-15T10:03:27.759Z,224
2016-11-15T10:04:36.473Z,228
2016-11-15T10:05:45.818Z,228
2016-11-15T10:06:54.512Z,232
2016-11-15T10:08:03.233Z,272
2016-11-15T10:09:12.843Z,316
2016-11-15T10:10:21.658Z,328
2016-11-15T10:11:30.734Z,364
2016-11-15T10:12:39.738Z,412
2016-11-15T10:13:48.920Z,416
2016-11-15T10:14:57.934Z,400
2016-11-15T10:16:06.938Z,272
2016-11-15T10:17:16.257Z,232
2016-11-15T10:18:25.603Z,200
2016-11-15T10:19:35.215Z,216
2016-11-15T10:20:44.229Z,228
2016-11-15T10:21:52.943Z,216
2016-11-15T10:23:01.665Z,208
2016-11-15T10:24:10.731Z,228
2016-11-15T10:25:19.735Z,272
2016-11-15T10:26:29.374Z,280
2016-11-15T10:27:38.398Z,260
2016-11-15T10:28:47.104Z,260
2016-11-15T10:29:56.471Z,228
2016-11-15T10:31:05.171Z,216
2016-11-15T10:32:14.520Z,228
2016-11-15T10:33:23.256Z,240
2016-11-15T10:34:32.617Z,284
2016-11-15T10:35:42.603Z,296
2016-11-15T10:36:51.917Z,276
2016-11-15T10:38:00.937Z,308
2016-11-15T10:39:10.285Z,296
2016-11-15T10:40:19.625Z,268
2016-11-15T10:41:28.963Z,240
2016-11-15T10:42:38.268Z,264
2016-11-15T10:43:46.987Z,256
2016-11-15T10:44:56.338Z,268
2016-11-15T10:46:05.700Z,260
2016-11-15T10:47:14.410Z,284
2016-11-15T10:48:23.575Z,272
2016-11-15T10:49:33.192Z,268
2016-11-15T10:50:42.527Z,292
2016-11-15T10:51:51.256Z,348
2016-11-15T10:53:00.702Z,340
2016-11-15T10:54:10.036Z,332
2016-11-15T10:55:19.046Z,296
2016-11-15T10:56:28.064Z,304
2016-11-15T10:57:37.379Z,288
2016-11-15T10:58:46.070Z,256
2016-11-15T10:59:55.525Z,252
2016-11-15T11:01:04.557Z,232
2016-11-15T11:02:13.590Z,212
2016-11-15T11:03:22.903Z,188
2016-11-15T11:04:32.197Z,192
2016-11-15T11:05:40.889Z,196
2016-11-15T11:06:49.901Z,172
2016-11-15T11:07:58.623Z,160
2016-11-15T11:09:07.327Z,184
2016-11-15T11:10:16.638Z,184
2016-11-15T11:11:25.942Z,200
2016-11-15T11:12:34.693Z,176
2016-11-15T11:13:43.713Z,168
2016-11-15T11:14:52.737Z,160
2016-11-15T11:16:01.748Z,172
2016-11-15T11:17:11.102Z,156
2016-11-15T11:18:20.124Z,156
2016-11-15T11:19:29.440Z,120
2016-11-15T11:20:38.462Z,128
2016-11-15T11:21:47.784Z,132
2016-11-15T11:22:57.079Z,156
2016-11-15T11:24:06.375Z,168
2016-11-15T11:25:15.362Z,184
2016-11-15T11:26:24.678Z,168
2016-11-15T11:27:34.586Z,140
2016-11-15T11:28:43.630Z,124
2016-11-15T11:29:52.646Z,128
2016-11-15T11:31:01.675Z,144
2016-11-15T11:32:10.382Z,156
2016-11-15T11:33:19.414Z,184
2016-11-15T11:34:29.094Z,208
2016-11-15T11:35:37.805Z,224
2016-11-15T11:36:46.796Z,256
2016-11-15T11:37:56.111Z,260
2016-11-15T11:39:05.424Z,280
2016-11-15T11:40:14.583Z,280
2016-11-15T11:41:23.312Z,248
2016-11-15T11:42:32.331Z,288
2016-11-15T11:43:41.968Z,272
2016-11-15T11:44:50.677Z,288
2016-11-15T11:45:59.994Z,312
2016-11-15T11:47:09.001Z,344
2016-11-15T11:48:18.608Z,372
2016-11-15T11:49:28.517Z,384
2016-11-15T11:50:37.230Z,388
2016-11-15T11:51:46.604Z,352
2016-11-15T11:52:55.915Z,304
2016-11-15T11:54:05.217Z,272
2016-11-15T11:55:14.532Z,248
2016-11-15T11:56:23.847Z,216
2016-11-15T11:57:33.028Z,212
2016-11-15T11:58:42.016Z,212
2016-11-15T11:59:51.334Z,252
2016-11-15T12:01:00.944Z,288
2016-11-15T12:02:09.637Z,304
2016-11-15T12:03:18.979Z,280
2016-11-15T12:04:27.667Z,256
2016-11-15T12:05:36.668Z,224
2016-11-15T12:06:45.389Z,224
2016-11-15T12:07:54.071Z,236
2016-11-15T12:09:03.701Z,208
2016-11-15T12:10:12.699Z,192
2016-11-15T12:11:22.640Z,184
2016-11-15T12:12:31.654Z,188
2016-11-15T12:13:40.656Z,188
2016-11-15T12:14:50.429Z,200
2016-11-15T12:15:59.428Z,208
2016-11-15T12:17:08.454Z,192
2016-11-15T12:18:17.767Z,184
2016-11-15T12:19:27.099Z,196
2016-11-15T12:20:35.962Z,164
2016-11-15T12:21:44.978Z,164
2016-11-15T12:22:53.993Z,160
2016-11-15T12:24:02.732Z,156
2016-11-15T12:25:12.358Z,148
2016-11-15T12:26:21.225Z,136
2016-11-15T12:27:30.239Z,144
2016-11-15T12:28:40.155Z,152
2016-11-15T12:29:49.181Z,156
2016-11-15T12:30:58.815Z,156
2016-11-15T12:32:07.655Z,164
2016-11-15T12:33:16.658Z,152
2016-11-15T12:34:25.364Z,152
2016-11-15T12:35:34.392Z,156
2016-11-15T12:36:43.707Z,156
2016-11-15T12:37:52.719Z,172
2016-11-15T12:39:01.758Z,192
2016-11-15T12:40:10.782Z,188
2016-11-15T12:41:19.558Z,232
2016-11-15T12:42:28.568Z,232
2016-11-15T12:43:37.573Z,204
2016-11-15T12:44:46.288Z,172
2016-11-15T12:45:55.022Z,156
2016-11-15T12:47:04.677Z,156
2016-11-15T12:48:14.053Z,144
2016-11-15T12:49:23.378Z,144
2016-11-15T12:50:32.430Z,136
2016-11-15T12:51:41.811Z,136
2016-11-15T12:52:51.444Z,136
2016-11-15T12:54:00.285Z,124
2016-11-15T12:55:09.301Z,132
2016-11-15T12:56:18.330Z,124
2016-11-15T12:57:27.039Z,116
2016-11-15T12:58:36.058Z,116
2016-11-15T12:59:44.751Z,128
2016-11-15T13:00:54.373Z,132
2016-11-15T13:02:04.032Z,128
2016-11-15T13:03:12.721Z,136
2016-11-15T13:04:22.034Z,140
2016-11-15T13:05:31.079Z,136
2016-11-15T13:06:40.103Z,128
2016-11-15T13:07:49.117Z,124
2016-11-15T13:08:58.467Z,116
2016-11-15T13:10:07.811Z,124
2016-11-15T13:11:17.463Z,140
2016-11-15T13:12:27.098Z,140
2016-11-15T13:13:36.158Z,144
2016-11-15T13:14:44.876Z,112
2016-11-15T13:15:53.887Z,100
2016-11-15T13:17:02.905Z,96
2016-11-15T13:18:12.549Z,92
2016-11-15T13:19:21.574Z,84
2016-11-15T13:20:30.573Z,84
2016-11-15T13:21:39.898Z,68
2016-11-15T13:22:49.533Z,72
2016-11-15T13:23:58.862Z,80
2016-11-15T13:25:07.899Z,84
2016-11-15T13:26:16.979Z,84
2016-11-15T13:27:25.696Z,88
2016-11-15T13:28:34.395Z,84
2016-11-15T13:29:43.553Z,76
2016-11-15T13:30:52.599Z,80
2016-11-15T13:32:01.915Z,76
2016-11-15T13:33:11.288Z,80
2016-11-15T13:34:20.623Z,76
2016-11-15T13:35:29.649Z,64
2016-11-15T13:36:38.987Z,52
2016-11-15T13:37:48.344Z,48
2016-11-15T13:38:57.069Z,52
2016-11-15T13:40:05.791Z,52
2016-11-15T13:41:14.845Z,48
2016-11-15T13:42:23.589Z,40
2016-11-15T13:43:32.910Z,36
2016-11-15T13:44:41.967Z,44
2016-11-15T13:45:51.328Z,48
2016-11-15T13:47:00.663Z,64
2016-11-15T13:48:09.684Z,72
2016-11-15T13:49:19.036Z,76
2016-11-15T13:50:27.743Z,68
2016-11-15T13:51:37.358Z,44
2016-11-15T13:55:18.741Z,48
2016-11-15T13:56:28.081Z,52
2016-11-15T13:57:37.708Z,56
2016-11-15T13:58:46.719Z,60
2016-11-15T13:59:55.756Z,60
2016-11-15T14:01:05.091Z,60
2016-11-15T14:02:13.826Z,52
2016-11-15T14:03:22.874Z,48
2016-11-15T14:04:31.896Z,44
2016-11-15T14:05:40.951Z,48
2016-11-15T14:06:49.665Z,44
2016-11-15T14:07:58.666Z,44
2016-11-15T14:09:07.698Z,44
2016-11-15T14:10:16.717Z,48
2016-11-15T14:11:25.758Z,44
2016-11-15T14:12:35.065Z,52
2016-11-15T14:13:44.075Z,64
2016-11-15T14:14:53.086Z,84
2016-11-15T14:16:02.707Z,76
2016-11-15T14:17:12.023Z,68
2016-11-15T14:18:21.070Z,72
2016-11-15T14:19:30.367Z,68
2016-11-15T14:20:40.015Z,80
2016-11-15T14:21:49.968Z,96
2016-11-15T14:22:59.016Z,96
2016-11-15T14:24:08.031Z,96
2016-11-15T14:25:17.357Z,96
2016-11-15T14:26:26.680Z,88
2016-11-15T14:27:35.680Z,96
2016-11-15T14:28:45.022Z,96
2016-11-15T14:29:54.022Z,100
2016-11-15T14:31:03.029Z,104
2016-11-15T14:32:12.334Z,100
2016-11-15T14:33:21.648Z,96
2016-11-15T14:34:30.647Z,104
2016-11-15T14:35:39.393Z,104
2016-11-15T14:36:48.733Z,104
2016-11-15T14:37:57.738Z,108
2016-11-15T14:39:07.359Z,92
2016-11-15T14:40:16.070Z,88
2016-11-15T14:41:24.781Z,80
2016-11-15T14:42:34.724Z,76
2016-11-15T14:43:44.337Z,72
2016-11-15T14:44:53.355Z,68
2016-11-15T14:46:02.046Z,64
2016-11-15T14:47:10.743Z,60
2016-11-15T14:48:19.771Z,56
2016-11-15T14:49:28.807Z,56
2016-11-15T14:50:38.105Z,60
2016-11-15T14:51:47.402Z,68
2016-11-15T14:52:56.716Z,68
2016-11-15T14:54:05.399Z,72
2016-11-15T14:55:14.392Z,76
2016-11-15T14:56:23.437Z,76
2016-11-15T14:57:32.743Z,60
2016-11-15T14:58:41.735Z,56
2016-11-15T14:59:50.495Z,56
2016-11-15T15:00:59.829Z,52
2016-11-15T15:02:09.482Z,40
2016-11-15T15:03:18.195Z,40
2016-11-15T15:04:28.114Z,36
2016-11-15T15:05:37.429Z,32
2016-11-15T15:06:46.128Z,28
2016-11-15T15:07:54.824Z,28
2016-11-15T15:09:03.513Z,28
2016-11-15T15:10:12.527Z,24
2016-11-15T15:11:21.239Z,24
2016-11-15T15:12:30.555Z,24
2016-11-15T15:13:39.560Z,24
2016-11-15T15:14:49.192Z,24
2016-11-15T15:15:58.808Z,24
2016-11-15T15:17:07.491Z,28
2016-11-15T15:18:16.840Z,24
2016-11-15T15:19:26.142Z,20
2016-11-15T15:20:35.140Z,20
2016-11-15T15:21:44.484Z,20
2016-11-15T15:22:54.397Z,16
2016-11-15T15:24:03.385Z,16
2016-11-15T15:25:12.687Z,16
2016-11-15T15:26:21.691Z,12
2016-11-15T15:27:31.006Z,12
2016-11-15T15:28:40.025Z,12
2016-11-15T15:29:49.050Z,12
2016-11-15T15:30:57.737Z,12
2016-11-15T15:32:06.427Z,12
2016-11-15T15:33:15.484Z,8
2016-11-15T15:34:24.175Z,8
2016-11-15T15:35:33.185Z,8
2016-11-15T15:36:42.174Z,8
2016-11-15T15:37:51.170Z,8
2016-11-15T15:38:59.853Z,4
2016-11-15T15:40:08.841Z,8
2016-11-15T15:41:17.841Z,4
2016-11-15T15:42:27.144Z,4
2016-11-15T15:43:36.148Z,4
2016-11-15T15:44:45.140Z,4
2016-11-15T15:45:54.167Z,4
2016-11-15T15:47:03.174Z,8
2016-11-15T15:48:11.898Z,4
2016-11-15T15:49:21.511Z,4
2016-11-15T15:50:30.816Z,4
2016-11-15T15:51:39.510Z,4
2016-11-15T15:52:48.221Z,4
2016-11-15T15:53:57.247Z,4
2016-11-15T15:55:06.559Z,4
2016-11-15T15:56:15.551Z,4
2016-11-15T15:57:25.248Z,4
2016-11-15T15:58:34.538Z,4
2016-11-15T15:59:43.224Z,4
2016-11-15T16:00:52.531Z,0
2016-11-15T16:02:01.527Z,0
2016-11-15T16:03:10.249Z,0
2016-11-15T16:04:18.933Z,0
2016-11-15T16:05:28.233Z,0
2016-11-15T16:06:37.222Z,0
2016-11-15T16:07:46.556Z,0
2016-11-15T16:08:55.547Z,4
2016-11-15T16:10:04.233Z,4
2016-11-15T16:11:12.917Z,4
2016-11-15T16:12:21.913Z,4
2016-11-15T16:13:30.622Z,4
2016-11-15T16:14:39.701Z,4
2016-11-15T16:15:48.739Z,0
2016-11-15T16:16:57.739Z,0
2016-11-15T16:18:07.052Z,0
2016-11-15T16:19:16.350Z,0
2016-11-15T16:20:25.349Z,0
2016-11-15T16:21:34.360Z,0
2016-11-15T16:22:43.345Z,0
2016-11-15T16:23:52.048Z,0
2016-11-15T16:25:01.645Z,0
2016-11-15T16:26:10.719Z,0
2016-11-15T16:27:20.331Z,0
2016-11-15T16:28:29.331Z,0
2016-11-15T16:29:38.329Z,0
2016-11-15T16:30:47.327Z,0
2016-11-15T16:31:56.652Z,0
2016-11-15T16:33:05.651Z,0
2016-11-15T16:34:14.648Z,0
2016-11-15T16:35:23.335Z,0